Time;durP1;ratioP1;P1;durP2;ratioP2;P2;SDS_P1;SDS_P2;PMS_P1;PMS_P2;Temp;Humidity;BMP_temperature;BMP_pressure;BME280_temperature;BME280_humidity;BME280_pressure;Samples;Min_cycle;Max_cycle;Signal;HPM_P1;HPM_P2
2024/01/06 00:00:35;;;;;;;21.20;11.50;;;;;;;-12.49;100.00;139259.91;107007;1263;25360;-55
2024/01/06 00:03:21;;;;;;;21.80;11.50;;;;;;;-12.52;100.00;139253.52;107091;1264;25406;-57
2024/01/06 00:06:06;;;;;;;20.90;11.20;;;;;;;-12.53;100.00;139249.59;106983;1259;25372;-56
2024/01/06 00:08:54;;;;;;;23.50;11.70;;;;;;;-12.55;100.00;139245.66;107014;1261;25341;-57
2024/01/06 00:11:40;;;;;;;21.30;11.00;;;;;;;-12.50;100.00;139257.69;107083;1260;25363;-57
2024/01/06 00:14:26;;;;;;;23.20;11.20;;;;;;;-12.45;100.00;139269.48;107085;1263;25398;-60
2024/01/06 00:17:12;;;;;;;21.60;11.50;;;;;;;-12.42;100.00;139274.39;107043;1263;25477;-58
2024/01/06 00:20:00;;;;;;;23.90;11.20;;;;;;;-12.39;100.00;139282.50;107077;1260;25356;-56
2024/01/06 00:22:46;;;;;;;18.50;9.00;;;;;;;-12.34;100.00;139295.28;107011;1264;25414;-60
2024/01/06 00:25:31;;;;;;;18.70;9.80;;;;;;;-12.30;100.00;139305.58;107024;1266;25369;-54
2024/01/06 00:28:16;;;;;;;19.80;9.30;;;;;;;-12.25;100.00;139316.63;107021;1263;25394;-54
2024/01/06 00:31:02;;;;;;;18.40;9.80;;;;;;;-12.16;100.00;139337.53;107192;1266;25360;-57
2024/01/06 00:33:48;;;;;;;20.70;10.60;;;;;;;-12.11;100.00;139349.84;107198;1260;25626;-55
2024/01/06 00:36:34;;;;;;;22.00;11.10;;;;;;;-12.01;100.00;139373.41;107176;1263;22981;-60
2024/01/06 00:39:20;;;;;;;17.50;9.90;;;;;;;-11.98;100.00;139380.03;107086;1263;25341;-55
2024/01/06 00:42:05;;;;;;;19.40;10.20;;;;;;;-12.01;100.00;139374.41;107148;1260;24268;-56
2024/01/06 00:44:51;;;;;;;18.00;9.30;;;;;;;-12.03;100.00;139370.47;107113;1263;25439;-55
2024/01/06 00:47:37;;;;;;;14.80;8.50;;;;;;;-12.03;100.00;139370.95;107155;1266;25420;-56
2024/01/06 00:50:23;;;;;;;22.30;10.10;;;;;;;-11.93;100.00;139392.33;107145;1260;25239;-58
2024/01/06 00:53:09;;;;;;;17.40;8.20;;;;;;;-11.82;100.00;139419.33;107120;1263;25359;-55
2024/01/06 00:55:55;;;;;;;18.50;9.90;;;;;;;-11.77;100.00;139431.36;107102;1263;25341;-59
2024/01/06 00:58:40;;;;;;;17.10;8.80;;;;;;;-11.79;100.00;139427.19;107287;1266;25491;-57
2024/01/06 01:01:26;;;;;;;14.60;7.40;;;;;;;-11.80;100.00;139424.73;107170;1266;22597;-56
2024/01/06 01:04:11;;;;;;;16.40;8.80;;;;;;;-11.84;100.00;139414.66;107215;1253;25379;-57
2024/01/06 01:06:57;;;;;;;13.40;6.70;;;;;;;-11.89;100.00;139402.16;107211;1260;25331;-55
2024/01/06 01:09:43;;;;;;;17.50;7.90;;;;;;;-11.88;100.00;139404.63;107149;1263;25372;-56
2024/01/06 01:12:29;;;;;;;12.10;6.40;;;;;;;-11.91;100.00;139398.48;107203;1251;25369;-58
2024/01/06 01:15:14;;;;;;;16.20;6.80;;;;;;;-11.96;100.00;139385.95;107127;1263;22583;-57
2024/01/06 01:18:00;;;;;;;14.50;7.60;;;;;;;-12.01;100.00;139373.67;107062;1260;24369;-55
2024/01/06 01:20:45;;;;;;;11.80;6.40;;;;;;;-12.04;100.00;139367.52;107208;1263;25368;-58
2024/01/06 01:23:31;;;;;;;15.00;7.00;;;;;;;-12.06;100.00;139364.08;107190;1260;25385;-55
2024/01/06 01:26:16;;;;;;;11.90;5.60;;;;;;;-12.07;100.00;139359.91;107114;1271;25491;-57
2024/01/06 01:29:02;;;;;;;14.60;6.70;;;;;;;-12.08;100.00;139358.19;107158;1260;25408;-54
2024/01/06 01:31:48;;;;;;;12.30;6.30;;;;;;;-12.07;100.00;139359.66;107149;1254;25378;-56
2024/01/06 01:34:34;;;;;;;14.70;6.00;;;;;;;-12.07;100.00;139360.16;107118;1263;25442;-57
2024/01/06 01:37:20;;;;;;;14.50;6.60;;;;;;;-12.07;100.00;139359.91;107149;1263;25350;-58
2024/01/06 01:40:07;;;;;;;14.40;6.80;;;;;;;-12.09;100.00;139355.69;107188;1263;25379;-57
2024/01/06 01:42:53;;;;;;;15.30;7.50;;;;;;;-12.07;100.00;139359.91;107172;1263;25350;-58
2024/01/06 01:45:39;;;;;;;16.40;7.50;;;;;;;-12.06;100.00;139362.84;107131;1260;25186;-54
2024/01/06 01:48:25;;;;;;;13.00;6.40;;;;;;;-12.04;100.00;139367.28;107225;1263;25350;-60
2024/01/06 01:51:11;;;;;;;19.30;8.00;;;;;;;-11.97;100.00;139382.97;107080;1263;25331;-58
2024/01/06 01:54:02;;;;;;;15.70;7.80;;;;;;;-11.90;100.00;139400.45;107178;1260;25369;-60
2024/01/06 01:56:47;;;;;;;17.50;8.70;;;;;;;-11.85;100.00;139413.91;107272;1266;22527;-60
2024/01/06 01:59:33;;;;;;;14.60;8.10;;;;;;;-11.83;100.00;139418.09;107151;1263;25491;-57
2024/01/06 02:02:21;;;;;;;12.20;6.80;;;;;;;-11.86;100.00;139409.03;107156;1263;25507;-58
2024/01/06 02:05:07;;;;;;;12.10;6.10;;;;;;;-11.90;100.00;139400.45;107141;1263;25369;-55
2024/01/06 02:07:53;;;;;;;15.40;7.20;;;;;;;-11.92;100.00;139395.03;107149;1260;22520;-58
2024/01/06 02:10:39;;;;;;;14.00;7.30;;;;;;;-11.90;100.00;139399.45;106992;1264;25411;-56
2024/01/06 02:13:35;;;;;;;11.40;6.30;;;;;;;-11.86;100.00;139409.75;107041;1265;25402;-58
2024/01/06 02:16:21;;;;;;;11.00;6.30;;;;;;;-11.82;100.00;139419.30;107021;1263;25414;-53
2024/01/06 02:19:12;;;;;;;12.30;5.80;;;;;;;-11.81;100.00;139422.27;107019;1261;25417;-55
2024/01/06 02:21:58;;;;;;;13.00;7.10;;;;;;;-11.84;100.00;139415.38;107038;1263;25512;-54
2024/01/06 02:24:44;;;;;;;9.80;6.10;;;;;;;-11.82;100.00;139421.03;107020;1263;25369;-60
2024/01/06 02:27:31;;;;;;;11.70;5.30;;;;;;;-11.79;100.00;139426.70;107043;1263;25481;-57
2024/01/06 02:30:17;;;;;;;11.30;5.80;;;;;;;-11.80;100.00;139424.25;107036;1260;25341;-59
2024/01/06 02:33:03;;;;;;;12.00;6.00;;;;;;;-11.83;100.00;139417.83;107030;1263;25402;-55
2024/01/06 02:35:49;;;;;;;9.00;4.80;;;;;;;-11.85;100.00;139412.91;107021;1260;25545;-57
2024/01/06 02:38:34;;;;;;;9.60;5.00;;;;;;;-11.79;100.00;139426.69;107016;1260;25521;-60
2024/01/06 02:41:20;;;;;;;10.10;5.20;;;;;;;-11.73;100.00;139442.42;107055;1270;25360;-57
2024/01/06 02:44:06;;;;;;;10.40;5.40;;;;;;;-11.66;100.00;139458.16;107051;1272;25519;-55
2024/01/06 02:46:52;;;;;;;10.10;5.40;;;;;;;-11.65;100.00;139460.34;107026;1272;25408;-58
2024/01/06 02:49:37;;;;;;;11.60;6.10;;;;;;;-11.69;100.00;139451.53;107067;1263;25344;-56
2024/01/06 02:52:23;;;;;;;10.90;6.00;;;;;;;-11.69;100.00;139450.28;107064;1263;25369;-57
2024/01/06 02:55:09;;;;;;;10.70;6.20;;;;;;;-11.75;100.00;139436.03;107065;1263;25442;-59
2024/01/06 02:57:55;;;;;;;10.30;5.00;;;;;;;-11.77;100.00;139431.61;107151;1262;25341;-56
2024/01/06 03:00:40;;;;;;;8.90;5.50;;;;;;;-11.77;100.00;139432.34;107249;1263;25452;-59
2024/01/06 03:03:26;;;;;;;13.00;5.40;;;;;;;-11.76;100.00;139434.06;107231;1264;25331;-58
2024/01/06 03:06:12;;;;;;;12.10;5.70;;;;;;;-11.75;100.00;139438.00;107177;1263;25334;-58
2024/01/06 03:08:58;;;;;;;11.70;5.90;;;;;;;-11.74;100.00;139439.47;107204;1259;25369;-57
2024/01/06 03:11:43;;;;;;;15.90;6.50;;;;;;;-11.72;100.00;139443.66;107161;1263;25484;-58
2024/01/06 03:14:29;;;;;;;9.20;5.00;;;;;;;-11.74;100.00;139439.72;107246;1263;23346;-54
2024/01/06 03:17:14;;;;;;;11.20;5.60;;;;;;;-11.77;100.00;139432.11;107190;1267;25403;-57
2024/01/06 03:20:00;;;;;;;12.00;5.20;;;;;;;-11.77;100.00;139432.59;107135;1263;25344;-58
2024/01/06 03:22:46;;;;;;;9.90;5.10;;;;;;;-11.74;100.00;139437.97;107166;1263;25529;-58
2024/01/06 03:25:32;;;;;;;10.70;5.10;;;;;;;-11.73;100.00;139441.67;107195;1261;25484;-57
2024/01/06 03:28:17;;;;;;;9.50;5.00;;;;;;;-11.76;100.00;139434.08;107188;1262;22647;-58
2024/01/06 03:31:03;;;;;;;10.70;5.50;;;;;;;-11.76;100.00;139433.34;107187;1260;25334;-56
2024/01/06 03:33:48;;;;;;;11.00;5.60;;;;;;;-11.76;100.00;139434.31;107210;1262;22531;-56
2024/01/06 03:36:34;;;;;;;10.10;5.00;;;;;;;-11.77;100.00;139432.59;107128;1260;25424;-59
2024/01/06 03:39:20;;;;;;;9.60;5.20;;;;;;;-11.73;100.00;139442.67;107255;1263;25386;-55
2024/01/06 03:42:06;;;;;;;9.40;5.40;;;;;;;-11.71;100.00;139447.34;107299;1257;25667;-56
2024/01/06 03:44:52;;;;;;;11.10;5.20;;;;;;;-11.66;100.00;139457.91;107127;1266;25350;-58
2024/01/06 03:47:37;;;;;;;11.60;5.40;;;;;;;-11.66;100.00;139458.16;107130;1251;25493;-58
2024/01/06 03:50:23;;;;;;;11.00;6.30;;;;;;;-11.68;100.00;139453.97;107105;1263;25372;-57
2024/01/06 03:53:08;;;;;;;10.40;5.90;;;;;;;-11.69;100.00;139450.53;107257;1262;25824;-59
2024/01/06 03:55:54;;;;;;;10.90;5.40;;;;;;;-11.68;100.00;139452.25;107152;1260;24218;-59
2024/01/06 03:58:39;;;;;;;10.10;4.90;;;;;;;-11.65;100.00;139461.84;107116;1263;25372;-58
2024/01/06 04:01:24;;;;;;;7.90;4.50;;;;;;;-11.61;100.00;139470.94;107197;1269;25362;-57
2024/01/06 04:04:10;;;;;;;10.80;4.80;;;;;;;-11.66;100.00;139458.66;107151;1253;25430;-57
2024/01/06 04:06:57;;;;;;;8.50;4.20;;;;;;;-11.66;100.00;139459.16;107209;1267;25369;-58
2024/01/06 04:09:43;;;;;;;11.20;5.70;;;;;;;-11.64;100.00;139463.09;107215;1258;25421;-56
2024/01/06 04:12:29;;;;;;;10.10;5.50;;;;;;;-11.63;100.00;139466.28;107121;1264;25507;-55
2024/01/06 04:15:14;;;;;;;9.20;4.80;;;;;;;-11.63;100.00;139465.03;107161;1260;25334;-56
2024/01/06 04:18:05;;;;;;;9.90;5.30;;;;;;;-11.69;100.00;139452.02;107188;1263;25331;-55
2024/01/06 04:20:51;;;;;;;13.80;5.20;;;;;;;-11.71;100.00;139444.88;107103;1263;25341;-57
2024/01/06 04:23:36;;;;;;;13.60;6.10;;;;;;;-11.75;100.00;139437.50;107182;1263;25436;-55
2024/01/06 04:26:22;;;;;;;9.80;4.60;;;;;;;-11.78;100.00;139430.63;107156;1260;24220;-56
2024/01/06 04:29:08;;;;;;;8.60;4.90;;;;;;;-11.80;100.00;139424.23;107124;1263;25372;-59
2024/01/06 04:31:54;;;;;;;10.60;5.60;;;;;;;-11.81;100.00;139421.78;107292;1266;25436;-54
2024/01/06 04:34:41;;;;;;;8.50;4.70;;;;;;;-11.81;100.00;139423.25;107128;1263;25417;-52
2024/01/06 04:37:27;;;;;;;10.50;5.50;;;;;;;-11.81;100.00;139423.00;107206;1253;25389;-54
2024/01/06 04:40:13;;;;;;;10.20;5.30;;;;;;;-11.79;100.00;139426.47;107026;1266;25347;-58
2024/01/06 04:42:58;;;;;;;8.30;4.50;;;;;;;-11.76;100.00;139433.33;107061;1263;25491;-57
2024/01/06 04:45:44;;;;;;;11.60;5.90;;;;;;;-11.75;100.00;139435.53;107009;1263;25421;-58
2024/01/06 04:48:30;;;;;;;12.10;6.30;;;;;;;-11.77;100.00;139432.09;107035;1261;25449;-58
2024/01/06 04:51:15;;;;;;;11.00;5.30;;;;;;;-11.76;100.00;139433.09;106981;1263;25406;-57
2024/01/06 04:54:01;;;;;;;10.60;5.30;;;;;;;-11.77;100.00;139431.13;107030;1263;25418;-56
2024/01/06 04:56:47;;;;;;;13.40;6.30;;;;;;;-11.75;100.00;139436.53;107016;1263;25962;-58
2024/01/06 04:59:33;;;;;;;11.20;6.20;;;;;;;-11.74;100.00;139439.22;107041;1261;25341;-58
2024/01/06 05:02:19;;;;;;;14.40;5.90;;;;;;;-11.75;100.00;139437.25;107058;1263;25365;-54
2024/01/06 05:05:05;;;;;;;13.20;7.30;;;;;;;-11.76;100.00;139434.06;107065;1260;25344;-54
2024/01/06 05:07:50;;;;;;;13.40;7.10;;;;;;;-11.76;100.00;139434.06;107088;1263;25423;-60
2024/01/06 05:10:36;;;;;;;13.40;6.40;;;;;;;-11.73;100.00;139440.95;107091;1263;25372;-55
2024/01/06 05:13:22;;;;;;;11.70;6.40;;;;;;;-11.71;100.00;139447.59;107054;1263;25421;-58
2024/01/06 05:16:08;;;;;;;13.30;6.30;;;;;;;-11.69;100.00;139450.78;107088;1263;25356;-59
2024/01/06 05:18:54;;;;;;;17.60;7.40;;;;;;;-11.71;100.00;139446.38;107097;1263;25338;-55
2024/01/06 05:21:40;;;;;;;12.10;6.50;;;;;;;-11.72;100.00;139442.91;107027;1263;25350;-58
2024/01/06 05:24:25;;;;;;;13.70;6.00;;;;;;;-11.73;100.00;139441.67;107051;1263;25389;-57
2024/01/06 05:27:11;;;;;;;14.00;6.70;;;;;;;-11.72;100.00;139443.66;107034;1260;25337;-58
2024/01/06 05:29:59;;;;;;;16.60;6.80;;;;;;;-11.73;100.00;139441.41;107032;1260;25341;-53
2024/01/06 05:32:44;;;;;;;17.30;7.20;;;;;;;-11.72;100.00;139443.41;107018;1263;101137;-58
2024/01/06 05:35:30;;;;;;;14.30;7.30;;;;;;;-11.75;100.00;139437.25;107083;1270;25430;-58
2024/01/06 05:38:17;;;;;;;11.10;6.40;;;;;;;-11.77;100.00;139433.09;107020;1270;25344;-59
2024/01/06 05:41:03;;;;;;;14.30;6.80;;;;;;;-11.74;100.00;139439.22;107046;1263;25344;-57
2024/01/06 05:43:49;;;;;;;13.50;7.00;;;;;;;-11.71;100.00;139445.86;107027;1263;24325;-57
2024/01/06 05:46:34;;;;;;;12.30;6.70;;;;;;;-11.72;100.00;139445.14;107032;1263;25344;-55
2024/01/06 05:49:20;;;;;;;12.30;6.30;;;;;;;-11.68;100.00;139454.47;107033;1263;25590;-54
2024/01/06 05:52:05;;;;;;;12.60;6.10;;;;;;;-11.64;100.00;139462.59;107035;1263;25347;-60
2024/01/06 05:54:51;;;;;;;12.80;6.30;;;;;;;-11.62;100.00;139468.73;107028;1263;25565;-58
2024/01/06 05:57:36;;;;;;;10.90;5.60;;;;;;;-11.62;100.00;139468.97;107045;1260;25343;-56
2024/01/06 06:00:22;;;;;;;10.90;6.10;;;;;;;-11.60;100.00;139473.41;107046;1256;25372;-55
2024/01/06 06:03:08;;;;;;;10.60;5.60;;;;;;;-11.57;100.00;139479.53;107034;1260;25335;-56
2024/01/06 06:05:54;;;;;;;12.00;6.60;;;;;;;-11.53;100.00;139489.13;107115;1253;25331;-58
2024/01/06 06:08:42;;;;;;;16.30;5.80;;;;;;;-11.49;100.00;139498.25;107173;1263;23367;-58
2024/01/06 06:11:28;;;;;;;14.60;6.70;;;;;;;-11.52;100.00;139491.33;107147;1263;25528;-58
2024/01/06 06:14:13;;;;;;;13.80;6.70;;;;;;;-11.53;100.00;139488.89;107021;1263;25469;-56
2024/01/06 06:16:59;;;;;;;12.60;6.00;;;;;;;-11.54;100.00;139487.42;107039;1263;25488;-53
2024/01/06 06:19:44;;;;;;;12.40;6.10;;;;;;;-11.53;100.00;139488.64;107026;1263;25467;-58
2024/01/06 06:22:31;;;;;;;13.60;6.20;;;;;;;-11.53;100.00;139488.16;107025;1263;25407;-59
2024/01/06 06:25:17;;;;;;;9.90;5.10;;;;;;;-11.52;100.00;139490.84;107046;1263;25404;-55
2024/01/06 06:28:03;;;;;;;12.10;5.10;;;;;;;-11.53;100.00;139488.41;107038;1263;25372;-54
2024/01/06 06:30:48;;;;;;;13.30;6.80;;;;;;;-11.53;100.00;139490.34;107014;1263;25558;-59
2024/01/06 06:33:34;;;;;;;12.10;6.00;;;;;;;-11.52;100.00;139491.83;107076;1263;25459;-56
2024/01/06 06:36:20;;;;;;;12.30;6.30;;;;;;;-11.49;100.00;139499.47;107119;1263;25412;-58
2024/01/06 06:39:06;;;;;;;12.00;6.60;;;;;;;-11.46;100.00;139507.31;107036;1263;25529;-57
2024/01/06 06:41:51;;;;;;;11.20;6.40;;;;;;;-11.43;100.00;139512.48;107078;1263;25406;-55
2024/01/06 06:44:37;;;;;;;10.40;5.20;;;;;;;-11.39;100.00;139522.56;107072;1263;25485;-54
2024/01/06 06:47:23;;;;;;;13.20;6.70;;;;;;;-11.40;100.00;139520.38;107049;1263;25408;-55
2024/01/06 06:50:09;;;;;;;13.60;7.10;;;;;;;-11.38;100.00;139525.75;107098;1263;25366;-57
2024/01/06 06:52:55;;;;;;;13.80;6.70;;;;;;;-11.36;100.00;139531.91;107092;1263;25341;-55
2024/01/06 06:55:40;;;;;;;10.50;5.70;;;;;;;-11.31;100.00;139541.52;107087;1263;25493;-56
2024/01/06 06:58:26;;;;;;;13.40;6.50;;;;;;;-11.26;100.00;139555.53;107088;1263;25359;-57
2024/01/06 07:01:16;;;;;;;15.70;7.80;;;;;;;-11.22;100.00;139564.88;107094;1263;25372;-57
2024/01/06 07:04:02;;;;;;;11.80;6.80;;;;;;;-11.19;100.00;139571.28;107106;1263;25519;-57
2024/01/06 07:06:48;;;;;;;13.20;6.70;;;;;;;-11.18;100.00;139574.95;106987;1263;25372;-56
2024/01/06 07:09:33;;;;;;;11.00;6.30;;;;;;;-11.17;100.00;139576.69;107122;1263;25945;-64
2024/01/06 07:12:19;;;;;;;14.90;6.70;;;;;;;-11.09;100.00;139595.86;107044;1270;25491;-59
2024/01/06 07:15:05;;;;;;;12.20;6.30;;;;;;;-10.99;100.00;139619.22;107007;1267;25372;-56
2024/01/06 07:17:53;;;;;;;14.40;6.80;;;;;;;-10.93;100.00;139632.75;107264;1263;25479;-57
2024/01/06 07:20:38;;;;;;;19.60;7.70;;;;;;;-10.86;100.00;139650.97;107245;1260;25368;-59
2024/01/06 07:23:24;;;;;;;12.10;7.30;;;;;;;-10.85;100.00;139653.67;107193;1263;25523;-56
2024/01/06 07:26:10;;;;;;;21.00;7.50;;;;;;;-10.78;100.00;139669.67;107231;1263;24242;-58
2024/01/06 07:28:55;;;;;;;14.10;6.70;;;;;;;-10.76;100.00;139675.58;107359;1260;26625;-58
2024/01/06 07:31:41;;;;;;;14.70;7.60;;;;;;;-10.76;100.00;139674.09;107290;1253;25427;-58
2024/01/06 07:34:27;;;;;;;16.20;8.20;;;;;;;-10.80;100.00;139664.98;107438;1263;25356;-60
2024/01/06 07:37:13;;;;;;;21.40;8.80;;;;;;;-10.78;100.00;139669.66;107453;1263;25504;-57
2024/01/06 07:39:58;;;;;;;14.80;7.10;;;;;;;-10.80;100.00;139665.97;107372;1263;25485;-59
2024/01/06 07:42:45;;;;;;;16.30;8.30;;;;;;;-10.77;100.00;139673.58;107235;1263;22531;-56
2024/01/06 07:45:33;;;;;;;15.40;8.40;;;;;;;-10.72;100.00;139684.92;107112;1261;25404;-58
2024/01/06 07:48:19;;;;;;;16.80;8.30;;;;;;;-10.66;100.00;139697.72;107125;1263;25344;-56
2024/01/06 07:51:05;;;;;;;14.60;8.00;;;;;;;-10.62;100.00;139708.55;107185;1263;25420;-57
2024/01/06 07:53:51;;;;;;;13.30;8.40;;;;;;;-10.58;100.00;139717.41;107114;1263;25417;-55
2024/01/06 07:56:37;;;;;;;16.80;8.70;;;;;;;-10.50;100.00;139736.34;107229;1263;25459;-58
2024/01/06 07:59:23;;;;;;;15.90;8.40;;;;;;;-10.42;100.00;139756.78;107253;1263;25359;-58
2024/01/06 08:02:09;;;;;;;17.60;8.80;;;;;;;-10.40;100.00;139760.97;107174;1262;22643;-58
2024/01/06 08:04:55;;;;;;;17.60;9.10;;;;;;;-10.34;100.00;139776.47;107115;1263;23331;-57
2024/01/06 08:07:41;;;;;;;13.90;8.50;;;;;;;-10.30;100.00;139785.59;107259;1263;25481;-55
2024/01/06 08:10:26;;;;;;;16.00;8.80;;;;;;;-10.25;100.00;139796.13;107179;1264;25424;-59
2024/01/06 08:13:12;;;;;;;17.10;6.20;;;;;;;-10.18;100.00;139814.34;107390;1266;23798;-55
2024/01/06 08:15:59;;;;;;;17.50;9.40;;;;;;;-10.12;100.00;139829.36;107279;1267;25337;-54
2024/01/06 08:18:45;;;;;;;15.00;8.10;;;;;;;-10.06;100.00;139843.41;107082;1266;25341;-56
2024/01/06 08:21:30;;;;;;;14.30;7.90;;;;;;;-10.05;100.00;139845.36;107195;1264;25405;-57
2024/01/06 08:24:16;;;;;;;13.80;8.90;;;;;;;-10.01;100.00;139855.47;107258;1262;25490;-58
2024/01/06 08:27:03;;;;;;;17.50;9.50;;;;;;;-9.97;100.00;139863.84;107203;1266;25564;-57
2024/01/06 08:29:48;;;;;;;14.90;8.70;;;;;;;-9.85;100.00;139894.61;107275;1263;25372;-59
2024/01/06 08:32:35;;;;;;;14.80;9.50;;;;;;;-9.76;100.00;139915.28;107194;1263;25368;-58
2024/01/06 08:35:21;;;;;;;17.60;9.50;;;;;;;-9.63;100.00;139947.08;107009;1268;25359;-55
2024/01/06 08:38:07;;;;;;;14.60;8.20;;;;;;;-9.57;100.00;139960.38;106973;1266;25344;-54
2024/01/06 08:40:53;;;;;;;14.10;7.90;;;;;;;-9.57;100.00;139961.13;106991;1266;25373;-60
2024/01/06 08:43:39;;;;;;;17.10;9.70;;;;;;;-9.49;100.00;139980.08;107034;1264;25401;-57
2024/01/06 08:46:25;;;;;;;20.50;9.40;;;;;;;-9.40;100.00;140000.77;107052;1263;25421;-59
2024/01/06 08:49:10;;;;;;;16.30;8.60;;;;;;;-9.31;100.00;140023.97;107075;1263;25532;-58
2024/01/06 08:51:56;;;;;;;16.50;9.20;;;;;;;-9.34;100.00;140016.80;107076;1263;25394;-58
2024/01/06 08:54:41;;;;;;;18.00;9.80;;;;;;;-9.23;100.00;140042.42;107254;1263;23862;-61
2024/01/06 08:57:28;;;;;;;17.30;10.20;;;;;;;-9.11;100.00;140070.52;107227;1263;25344;-59
2024/01/06 09:00:15;;;;;;;16.10;10.40;;;;;;;-9.03;100.00;140090.72;107081;1263;25493;-57
2024/01/06 09:03:01;;;;;;;15.70;9.50;;;;;;;-8.91;100.00;140120.05;107019;1263;25404;-59
2024/01/06 09:05:47;;;;;;;15.80;9.30;;;;;;;-8.82;100.00;140141.50;107051;1264;25484;-56
2024/01/06 09:08:33;;;;;;;16.80;9.60;;;;;;;-8.93;100.00;140114.89;106991;1263;25430;-57
2024/01/06 09:11:18;;;;;;;20.70;10.30;;;;;;;-9.06;100.00;140084.81;106993;1263;25433;-56
2024/01/06 09:14:05;;;;;;;17.60;9.70;;;;;;;-9.04;100.00;140089.00;106990;1263;25353;-57
2024/01/06 09:16:50;;;;;;;17.30;8.70;;;;;;;-9.05;100.00;140086.78;106981;1263;25487;-57
2024/01/06 09:19:35;;;;;;;15.10;9.00;;;;;;;-9.10;100.00;140073.70;106991;1263;25362;-54
2024/01/06 09:22:21;;;;;;;16.20;9.30;;;;;;;-9.19;100.00;140052.03;106998;1263;25521;-60
2024/01/06 09:25:07;;;;;;;17.80;10.00;;;;;;;-9.25;100.00;140037.02;106989;1263;25388;-57
2024/01/06 09:27:53;;;;;;;19.90;11.40;;;;;;;-9.26;100.00;140035.75;107014;1263;25353;-60
2024/01/06 09:30:39;;;;;;;20.60;10.90;;;;;;;-9.32;100.00;140020.50;106987;1263;25493;-58
2024/01/06 09:33:25;;;;;;;18.50;10.90;;;;;;;-9.38;100.00;140004.97;107015;1263;25372;-57
2024/01/06 09:36:13;;;;;;;18.80;10.10;;;;;;;-9.36;100.00;140011.63;106992;1263;23884;-59
2024/01/06 09:38:59;;;;;;;17.90;11.40;;;;;;;-9.40;100.00;140002.03;107298;1263;25472;-61
2024/01/06 09:41:45;;;;;;;21.10;11.70;;;;;;;-9.41;100.00;140000.78;107110;1263;25318;-61
2024/01/06 09:44:32;;;;;;;20.80;12.60;;;;;;;-9.33;100.00;140017.78;107127;1251;25347;-57
2024/01/06 09:47:18;;;;;;;26.60;14.20;;;;;;;-9.34;100.00;140016.06;107257;1263;22577;-57
2024/01/06 09:50:09;;;;;;;21.80;12.60;;;;;;;-9.35;100.00;140013.09;107142;1262;25372;-60
2024/01/06 09:53:03;;;;;;;19.10;10.80;;;;;;;-9.40;100.00;140002.27;107237;1266;26494;-57
2024/01/06 09:55:52;;;;;;;17.30;10.50;;;;;;;-9.41;100.00;140000.28;107262;1264;25363;-62
2024/01/06 09:58:39;;;;;;;20.10;10.90;;;;;;;-9.41;100.00;139999.06;107384;1266;25438;-56
2024/01/06 10:01:24;;;;;;;19.20;10.40;;;;;;;-9.42;100.00;139997.09;107469;1263;25418;-59
2024/01/06 10:04:10;;;;;;;20.50;10.70;;;;;;;-9.40;100.00;140002.28;107641;1270;25472;-62
2024/01/06 10:06:57;;;;;;;21.00;10.60;;;;;;;-9.36;100.00;140010.14;107634;1264;23210;-57
2024/01/06 10:09:44;;;;;;;19.20;10.90;;;;;;;-9.39;100.00;140004.47;107644;1264;25423;-60
2024/01/06 10:12:29;;;;;;;20.00;10.10;;;;;;;-9.38;100.00;140005.47;107727;1263;25419;-60
2024/01/06 10:15:20;;;;;;;15.70;9.30;;;;;;;-9.32;100.00;140021.72;107616;1263;25408;-61
2024/01/06 10:18:05;;;;;;;16.90;9.50;;;;;;;-9.25;100.00;140038.23;107804;1263;25371;-58
2024/01/06 10:20:51;;;;;;;19.90;10.30;;;;;;;-9.19;100.00;140053.53;107765;1256;25893;-58
2024/01/06 10:23:36;;;;;;;20.50;10.60;;;;;;;-9.21;100.00;140047.84;107682;1263;22697;-57
2024/01/06 10:26:22;;;;;;;18.40;9.30;;;;;;;-9.19;100.00;140054.02;107461;1263;25954;-59
2024/01/06 10:29:08;;;;;;;20.70;11.30;;;;;;;-9.20;100.00;140050.08;107139;1266;25392;-58
2024/01/06 10:31:54;;;;;;;18.10;10.40;;;;;;;-9.24;100.00;140041.20;107215;1268;23323;-60
2024/01/06 10:34:42;;;;;;;16.90;10.30;;;;;;;-9.25;100.00;140038.22;107181;1253;25401;-60
2024/01/06 10:37:28;;;;;;;19.30;10.80;;;;;;;-9.15;100.00;140061.16;107096;1256;25344;-59
2024/01/06 10:40:16;;;;;;;21.30;10.70;;;;;;;-9.14;100.00;140064.11;107122;1266;25334;-59
2024/01/06 10:43:03;;;;;;;18.30;11.30;;;;;;;-9.13;100.00;140066.81;107172;1269;25487;-59
2024/01/06 10:45:50;;;;;;;24.90;12.20;;;;;;;-9.16;100.00;140059.67;107129;1269;25324;-60
2024/01/06 10:48:38;;;;;;;17.60;11.20;;;;;;;-9.21;100.00;140047.84;107147;1265;25325;-57
2024/01/06 10:51:27;;;;;;;18.20;10.60;;;;;;;-9.21;100.00;140046.88;106948;1270;25359;-58
2024/01/06 10:54:15;;;;;;;19.90;11.70;;;;;;;-9.22;100.00;140045.38;106973;1266;25411;-60
2024/01/06 10:57:02;;;;;;;23.50;11.80;;;;;;;-9.19;100.00;140053.03;106985;1266;25334;-59
2024/01/06 10:59:50;;;;;;;21.50;11.10;;;;;;;-9.20;100.00;140049.09;106958;1271;25352;-58
2024/01/06 11:02:38;;;;;;;23.70;11.80;;;;;;;-9.24;100.00;140040.20;107109;1269;25344;-60
2024/01/06 11:05:25;;;;;;;20.50;11.00;;;;;;;-9.27;100.00;140033.05;106994;1263;25481;-58
2024/01/06 11:08:11;;;;;;;24.90;12.70;;;;;;;-9.29;100.00;140028.84;106948;1266;25347;-59
2024/01/06 11:10:57;;;;;;;20.10;11.70;;;;;;;-9.28;100.00;140030.33;107002;1266;25344;-61
2024/01/06 11:13:45;;;;;;;19.10;10.80;;;;;;;-9.23;100.00;140041.69;107051;1267;25363;-60
2024/01/06 11:16:35;;;;;;;19.70;11.10;;;;;;;-9.21;100.00;140047.84;107155;1270;25331;-59
2024/01/06 11:19:36;;;;;;;20.20;11.40;;;;;;;-9.10;100.00;140073.72;107015;1266;25331;-62
2024/01/06 11:22:31;;;;;;;18.20;10.30;;;;;;;-8.97;100.00;140105.52;106988;1264;25370;-59
2024/01/06 11:25:20;;;;;;;19.40;12.10;;;;;;;-8.94;100.00;140111.91;107009;1254;25398;-60
2024/01/06 11:28:08;;;;;;;21.30;11.90;;;;;;;-8.92;100.00;140115.38;107161;1266;25408;-58
2024/01/06 11:31:09;;;;;;;21.00;11.40;;;;;;;-8.94;100.00;140112.42;107358;1265;25417;-57
2024/01/06 11:33:55;;;;;;;22.30;12.20;;;;;;;-8.96;100.00;140108.72;107217;1263;25268;-59
2024/01/06 11:36:47;;;;;;;19.90;11.90;;;;;;;-8.91;100.00;140120.30;107895;1266;25468;-63
2024/01/06 11:39:41;;;;;;;20.70;12.30;;;;;;;-8.86;100.00;140130.42;107369;1262;24199;-62
2024/01/06 11:42:35;;;;;;;20.50;12.50;;;;;;;-8.85;100.00;140133.59;107234;1261;25392;-62
2024/01/06 11:45:21;;;;;;;22.60;12.60;;;;;;;-8.85;100.00;140134.59;107053;1265;25335;-61
2024/01/06 11:48:09;;;;;;;20.30;12.60;;;;;;;-8.82;100.00;140140.77;107356;1272;25423;-65
2024/01/06 11:50:55;;;;;;;20.40;11.00;;;;;;;-8.79;100.00;140148.16;107370;1263;24219;-65
2024/01/06 11:53:41;;;;;;;23.30;11.90;;;;;;;-8.76;100.00;140156.53;107194;1273;25344;-64
2024/01/06 11:56:27;;;;;;;21.50;12.80;;;;;;;-8.76;100.00;140156.05;107580;1263;25464;-60
2024/01/06 11:59:13;;;;;;;23.10;13.40;;;;;;;-8.69;100.00;140171.33;107291;1270;25462;-59
2024/01/06 12:01:58;;;;;;;20.40;12.00;;;;;;;-8.66;100.00;140179.48;107339;1263;22669;-61
2024/01/06 12:04:49;;;;;;;22.90;12.50;;;;;;;-8.65;100.00;140183.17;107334;1264;25344;-62
2024/01/06 12:07:35;;;;;;;24.90;13.80;;;;;;;-8.60;100.00;140194.78;107396;1268;25335;-59
2024/01/06 12:10:22;;;;;;;19.90;12.10;;;;;;;-8.57;100.00;140201.42;107099;1256;25409;-63
2024/01/06 12:13:08;;;;;;;21.00;13.00;;;;;;;-8.46;100.00;140228.30;107140;1266;25442;-62
2024/01/06 12:15:54;;;;;;;21.10;13.00;;;;;;;-8.35;100.00;140254.91;107120;1267;25375;-64
2024/01/06 12:18:40;;;;;;;19.20;11.70;;;;;;;-8.24;100.00;140282.53;107211;1266;23468;-61